createdAt,value
2023-12-31T04:50:28.925Z,3.91
2023-12-31T04:51:28.505Z,3.91
2023-12-31T04:52:28.412Z,3.91
2023-12-31T04:53:28.403Z,3.92
2023-12-31T04:54:28.375Z,3.94
2023-12-31T04:55:28.341Z,3.96
2023-12-31T04:56:28.357Z,3.98
2023-12-31T04:57:28.346Z,3.99
2023-12-31T04:58:28.359Z,3.99
2023-12-31T04:59:28.295Z,4.00
2023-12-31T05:00:28.276Z,4.00
2023-12-31T05:01:28.403Z,4.00
2023-12-31T05:02:28.274Z,4.00
2023-12-31T05:03:28.316Z,4.02
2023-12-31T05:04:28.280Z,4.05
2023-12-31T05:05:28.247Z,4.05
2023-12-31T05:06:28.241Z,4.08
2023-12-31T05:07:28.251Z,4.08
2023-12-31T05:08:28.195Z,4.09
2023-12-31T05:09:28.203Z,4.10
2023-12-31T05:10:28.216Z,4.12
2023-12-31T05:11:28.174Z,4.13
2023-12-31T05:12:28.148Z,4.13
2023-12-31T05:13:28.213Z,4.16
2023-12-31T05:14:28.153Z,4.17
2023-12-31T05:15:28.132Z,4.17
2023-12-31T05:16:28.173Z,4.20
2023-12-31T05:17:28.248Z,4.18
2023-12-31T05:18:28.203Z,4.20
2023-12-31T05:19:28.086Z,4.21
2023-12-31T05:20:28.082Z,4.21
2023-12-31T05:21:28.063Z,4.23
2023-12-31T05:22:28.098Z,4.21
2023-12-31T05:23:28.082Z,4.20
2023-12-31T05:24:28.019Z,4.21
2023-12-31T05:25:28.082Z,4.18
2023-12-31T05:26:28.038Z,4.20
2023-12-31T05:27:27.999Z,4.20
2023-12-31T05:28:28.032Z,4.20
2023-12-31T05:29:27.984Z,4.20
2023-12-31T05:30:27.980Z,4.18
2023-12-31T05:31:27.992Z,4.18
2023-12-31T05:32:27.968Z,4.17
2023-12-31T05:33:27.944Z,4.20
2023-12-31T05:34:27.917Z,4.20
2023-12-31T05:35:27.931Z,4.23
2023-12-31T05:36:27.897Z,4.24
2023-12-31T05:37:27.939Z,4.27
2023-12-31T05:38:27.884Z,4.28
2023-12-31T05:39:27.873Z,4.30
2023-12-31T05:40:27.866Z,4.34
2023-12-31T05:41:27.853Z,4.35
2023-12-31T05:42:27.831Z,4.36
2023-12-31T05:43:27.851Z,4.38
2023-12-31T05:44:27.813Z,4.41
2023-12-31T05:45:27.803Z,4.41
2023-12-31T05:46:27.861Z,4.42
2023-12-31T05:47:45.207Z,4.41
2023-12-31T05:48:27.913Z,4.43
2023-12-31T05:49:27.997Z,4.45
2023-12-31T05:50:27.773Z,4.46
2023-12-31T05:51:27.789Z,4.49
2023-12-31T05:52:27.752Z,4.48
2023-12-31T05:53:27.892Z,4.48
2023-12-31T05:54:27.700Z,4.48
2023-12-31T05:55:27.723Z,4.48
2023-12-31T05:56:27.693Z,4.49
2023-12-31T05:57:27.687Z,4.48
2023-12-31T05:58:27.690Z,4.49
2023-12-31T05:59:27.656Z,4.51
2023-12-31T06:00:27.641Z,4.51
2023-12-31T06:01:27.650Z,4.51
2023-12-31T06:02:27.638Z,4.51
2023-12-31T06:03:27.672Z,4.51
2023-12-31T06:04:27.592Z,4.53
2023-12-31T06:05:27.612Z,4.53
2023-12-31T06:06:27.589Z,4.54
2023-12-31T06:07:27.644Z,4.53
2023-12-31T06:08:27.544Z,4.54
2023-12-31T06:09:27.541Z,4.56
2023-12-31T06:10:27.597Z,4.56
2023-12-31T06:11:27.519Z,4.56
2023-12-31T06:12:27.532Z,4.59
2023-12-31T06:13:27.590Z,4.59
2023-12-31T06:14:27.489Z,4.60
2023-12-31T06:15:27.528Z,4.60
2023-12-31T06:16:27.551Z,4.60
2023-12-31T06:17:27.494Z,4.61
2023-12-31T06:18:27.512Z,4.60
2023-12-31T06:19:27.503Z,4.61
2023-12-31T06:20:27.438Z,4.63
2023-12-31T06:21:27.427Z,4.64
2023-12-31T06:22:27.458Z,4.64
2023-12-31T06:23:27.384Z,4.66
2023-12-31T06:24:27.399Z,4.67
2023-12-31T06:25:27.403Z,4.67
2023-12-31T06:26:27.388Z,4.69
2023-12-31T06:27:27.348Z,4.71
2023-12-31T06:28:27.383Z,4.71
2023-12-31T06:29:27.343Z,4.72
2023-12-31T06:30:27.444Z,4.71
2023-12-31T06:31:27.495Z,4.71
2023-12-31T06:32:27.434Z,4.72
2023-12-31T06:33:27.424Z,4.72
2023-12-31T06:34:27.316Z,4.72
2023-12-31T06:35:27.280Z,4.74
2023-12-31T06:36:27.292Z,4.74
2023-12-31T06:37:27.344Z,4.74
2023-12-31T06:38:27.241Z,4.77
2023-12-31T06:39:27.218Z,4.78
2023-12-31T06:40:27.273Z,4.78
2023-12-31T06:41:27.200Z,4.79
2023-12-31T06:42:27.214Z,4.82
2023-12-31T06:43:27.208Z,4.83
2023-12-31T06:44:27.204Z,4.85
2023-12-31T06:45:27.170Z,4.86
2023-12-31T06:46:27.199Z,4.86
2023-12-31T06:47:27.159Z,4.89
2023-12-31T06:48:27.137Z,4.89
2023-12-31T06:49:27.156Z,4.91
2023-12-31T06:50:27.122Z,4.93
2023-12-31T06:51:27.091Z,4.93
2023-12-31T06:52:27.088Z,4.91
2023-12-31T06:53:27.104Z,4.91
2023-12-31T06:54:27.100Z,4.89
2023-12-31T06:55:27.078Z,4.89
2023-12-31T06:56:27.053Z,4.91
2023-12-31T06:57:27.029Z,4.91
2023-12-31T06:58:27.066Z,4.93
2023-12-31T06:59:27.060Z,4.94
2023-12-31T07:00:26.992Z,4.94
2023-12-31T07:01:27.100Z,4.94
2023-12-31T07:02:27.115Z,4.94
2023-12-31T07:03:26.971Z,4.94
2023-12-31T07:04:26.993Z,4.94
2023-12-31T07:05:26.989Z,4.96
2023-12-31T07:06:26.932Z,4.97
2023-12-31T07:07:26.925Z,4.97
2023-12-31T07:08:26.926Z,4.98
2023-12-31T07:09:26.933Z,5.00
2023-12-31T07:10:26.965Z,5.00
2023-12-31T07:11:26.865Z,5.01
2023-12-31T07:12:26.913Z,5.03
2023-12-31T07:13:26.932Z,5.03
2023-12-31T07:14:26.893Z,5.04
2023-12-31T07:15:26.875Z,5.04
2023-12-31T07:16:26.832Z,5.06
2023-12-31T07:17:30.191Z,5.06
2023-12-31T07:18:26.947Z,5.09
2023-12-31T07:19:26.828Z,5.07
2023-12-31T07:20:26.769Z,5.07
2023-12-31T07:21:26.791Z,5.09
2023-12-31T07:22:26.862Z,5.11
2023-12-31T07:23:26.756Z,5.11
2023-12-31T07:24:26.758Z,5.11
2023-12-31T07:25:26.812Z,5.12
2023-12-31T07:26:26.712Z,5.14
2023-12-31T07:27:26.695Z,5.12
2023-12-31T07:28:26.741Z,5.15
2023-12-31T07:29:26.693Z,5.12
2023-12-31T07:30:26.716Z,5.09
2023-12-31T07:31:26.702Z,5.09
2023-12-31T07:32:26.708Z,5.09
2023-12-31T07:33:26.662Z,5.09
2023-12-31T07:34:26.683Z,5.09
2023-12-31T07:35:26.618Z,5.09
2023-12-31T07:36:26.695Z,5.11
2023-12-31T07:37:26.636Z,5.11
2023-12-31T07:38:26.589Z,5.12
2023-12-31T07:41:04.880Z,5.18
2023-12-31T07:42:05.979Z,5.22
2023-12-31T07:43:06.103Z,5.25
2023-12-31T07:44:05.813Z,5.29
2023-12-31T07:45:05.786Z,5.30
2023-12-31T07:46:05.797Z,5.30
2023-12-31T07:47:05.967Z,5.30
2023-12-31T07:48:05.774Z,5.30
2023-12-31T07:49:05.882Z,5.30
2023-12-31T07:50:05.806Z,5.27
2023-12-31T07:51:05.727Z,5.29
2023-12-31T09:09:13.213Z,5.65
2023-12-31T09:09:19.217Z,5.72
2023-12-31T15:32:11.860Z,7.50
2023-12-31T15:33:09.727Z,7.52
2023-12-31T15:34:09.600Z,7.54
